Time;durP1;ratioP1;P1;durP2;ratioP2;P2;SDS_P1;SDS_P2;PMS_P1;PMS_P2;Temp;Humidity;BMP_temperature;BMP_pressure;BME280_temperature;BME280_humidity;BME280_pressure;Samples;Min_cycle;Max_cycle;Signal;HPM_P1;HPM_P2
2022/11/06 00:00:25;;;;;;;14.50;7.28;;;;;;;;;;2070554;28;20038;-89
2022/11/06 00:01:26;;;;;;;11.90;7.45;;;;;;;;;;2062814;28;20518;-88
2022/11/06 00:02:26;;;;;;;11.75;7.95;;;;;;;;;;2064126;28;20064;-90
2022/11/06 00:03:27;;;;;;;12.30;7.28;;;;;;;;;;2078653;28;20044;-89
2022/11/06 00:04:30;;;;;;;9.55;6.78;;;;;;;;;;2071067;28;20500;-88
2022/11/06 00:06:50;;;;;;;12.30;6.22;;;;;;;;;;2068790;28;20049;-88
2022/11/06 00:07:50;;;;;;;16.98;7.18;;;;;;;;;;2071717;28;20112;-90
2022/11/06 00:08:51;;;;;;;13.32;6.63;;;;;;;;;;2079066;28;20634;-89
2022/11/06 00:09:51;;;;;;;9.13;6.70;;;;;;;;;;2079764;28;20031;-88
2022/11/06 00:10:51;;;;;;;13.70;7.65;;;;;;;;;;2071351;28;20120;-89
2022/11/06 00:11:52;;;;;;;11.63;6.35;;;;;;;;;;2071779;28;20108;-88
2022/11/06 00:12:52;;;;;;;11.32;6.60;;;;;;;;;;2070627;28;20030;-89
2022/11/06 00:13:53;;;;;;;13.27;7.32;;;;;;;;;;2064535;28;20117;-88
2022/11/06 00:14:53;;;;;;;14.27;7.38;;;;;;;;;;2062275;28;20053;-88
2022/11/06 00:15:54;;;;;;;12.13;7.05;;;;;;;;;;2062644;28;20534;-89
2022/11/06 00:16:54;;;;;;;15.48;7.18;;;;;;;;;;2067815;28;20446;-89
2022/11/06 00:17:55;;;;;;;11.60;6.57;;;;;;;;;;2079092;28;20025;-90
2022/11/06 00:18:55;;;;;;;11.73;6.75;;;;;;;;;;2072161;28;20103;-89
2022/11/06 00:19:56;;;;;;;10.43;7.07;;;;;;;;;;2057869;28;20498;-89
2022/11/06 00:20:56;;;;;;;;;;;;;;;;;;2057929;28;20030;-90
2022/11/06 00:21:57;;;;;;;17.63;8.57;;;;;;;;;;2069027;28;19909;-89
2022/11/06 00:22:57;;;;;;;15.10;8.10;;;;;;;;;;2073257;28;20103;-89
2022/11/06 00:23:59;;;;;;;13.60;7.70;;;;;;;;;;2065224;28;20023;-90
2022/11/06 00:25:00;;;;;;;16.27;9.00;;;;;;;;;;2073228;28;20519;-89
2022/11/06 00:26:04;;;;;;;16.23;9.95;;;;;;;;;;2074879;28;20084;-89
2022/11/06 00:27:04;;;;;;;20.00;11.05;;;;;;;;;;2065026;28;20026;-89
2022/11/06 00:28:05;;;;;;;19.63;11.10;;;;;;;;;;2063638;28;20056;-90
2022/11/06 00:29:06;;;;;;;18.15;10.77;;;;;;;;;;2062877;28;20117;-89
2022/11/06 00:30:13;;;;;;;17.83;12.27;;;;;;;;;;2060004;28;20034;-89
2022/11/06 00:31:16;;;;;;;17.60;11.43;;;;;;;;;;2055427;28;20030;-89
2022/11/06 00:32:17;;;;;;;17.88;12.02;;;;;;;;;;2055019;28;20030;-88
2022/11/06 00:33:17;;;;;;;20.38;13.18;;;;;;;;;;2062554;28;20030;-90
2022/11/06 00:34:18;;;;;;;20.02;11.43;;;;;;;;;;2070961;28;20049;-90
2022/11/06 00:35:18;;;;;;;24.80;11.90;;;;;;;;;;2063215;28;20080;-89
2022/11/06 00:36:21;;;;;;;17.25;12.23;;;;;;;;;;2063613;28;20046;-89
2022/11/06 00:37:22;;;;;;;18.35;12.18;;;;;;;;;;2062829;28;20438;-90
2022/11/06 00:38:22;;;;;;;18.77;11.95;;;;;;;;;;2062667;28;20036;-90
2022/11/06 00:39:23;;;;;;;23.50;12.63;;;;;;;;;;2070710;28;20391;-90
2022/11/06 00:40:23;;;;;;;21.13;12.85;;;;;;;;;;2062929;28;20175;-90
2022/11/06 00:41:24;;;;;;;22.80;12.95;;;;;;;;;;2064426;28;20070;-89
2022/11/06 00:42:24;;;;;;;;;;;;;;;;;;2066180;28;20105;-89
2022/11/06 00:43:25;;;;;;;18.63;12.07;;;;;;;;;;2074647;28;19914;-89
2022/11/06 00:44:25;;;;;;;;;;;;;;;;;;2082227;28;20147;-87
2022/11/06 00:45:25;;;;;;;20.17;13.23;;;;;;;;;;2065831;28;20305;-88
2022/11/06 00:46:26;;;;;;;24.27;13.18;;;;;;;;;;2064690;28;20080;-87
2022/11/06 00:47:26;;;;;;;;;;;;;;;;;;2065149;28;20037;-88
2022/11/06 00:48:27;;;;;;;22.83;14.47;;;;;;;;;;2064427;28;19944;-89
2022/11/06 00:49:27;;;;;;;20.63;12.55;;;;;;;;;;2064495;28;20413;-88
2022/11/06 00:50:28;;;;;;;19.92;13.93;;;;;;;;;;2064363;28;20523;-88
2022/11/06 00:51:29;;;;;;;;;;;;;;;;;;2064912;28;20040;-88
2022/11/06 00:52:30;;;;;;;22.60;12.75;;;;;;;;;;2064170;28;20079;-89
2022/11/06 00:53:30;;;;;;;;;;;;;;;;;;2064798;28;20030;-88
2022/11/06 00:54:31;;;;;;;21.67;13.53;;;;;;;;;;2056481;28;19965;-88
2022/11/06 00:55:31;;;;;;;23.48;13.85;;;;;;;;;;2055682;28;20490;-89
2022/11/06 00:56:32;;;;;;;20.70;14.32;;;;;;;;;;2063893;28;20034;-88
2022/11/06 00:57:33;;;;;;;23.35;14.43;;;;;;;;;;2064274;28;20030;-88
2022/11/06 00:58:33;;;;;;;20.13;13.32;;;;;;;;;;2063834;28;20488;-88
2022/11/06 00:59:34;;;;;;;20.08;13.93;;;;;;;;;;2064151;28;20462;-89
2022/11/06 01:00:34;;;;;;;;;;;;;;;;;;2064467;28;20026;-88
2022/11/06 01:01:44;;;;;;;21.40;13.58;;;;;;;;;;1982885;28;10262471;-88
2022/11/06 01:02:45;;;;;;;23.85;13.38;;;;;;;;;;2064510;28;20254;-89
2022/11/06 01:03:47;;;;;;;21.63;13.32;;;;;;;;;;2056177;28;20072;-89
2022/11/06 01:04:48;;;;;;;25.00;13.95;;;;;;;;;;2065223;28;20014;-89
2022/11/06 01:05:48;;;;;;;;;;;;;;;;;;2074799;28;20514;-89
2022/11/06 01:06:51;;;;;;;21.17;13.00;;;;;;;;;;2072709;28;19909;-89
2022/11/06 01:07:52;;;;;;;19.73;13.25;;;;;;;;;;2072835;28;20014;-89
2022/11/06 01:08:53;;;;;;;20.20;12.93;;;;;;;;;;2072827;28;20096;-89
2022/11/06 01:09:53;;;;;;;;;;;;;;;;;;2080818;28;20419;-88
2022/11/06 01:10:53;;;;;;;22.97;13.87;;;;;;;;;;2078260;28;19920;-89
2022/11/06 01:11:58;;;;;;;19.58;12.77;;;;;;;;;;2071990;28;20433;-89
2022/11/06 01:12:58;;;;;;;21.80;12.60;;;;;;;;;;2071915;28;20436;-89
2022/11/06 01:14:00;;;;;;;19.23;12.90;;;;;;;;;;2065071;28;20065;-90
2022/11/06 01:15:01;;;;;;;22.63;13.32;;;;;;;;;;2068534;28;20485;-90
2022/11/06 01:16:03;;;;;;;;;;;;;;;;;;2072441;28;20066;-90
2022/11/06 01:17:04;;;;;;;23.45;12.30;;;;;;;;;;2072063;28;20407;-90
2022/11/06 01:18:05;;;;;;;;;;;;;;;;;;1777352;28;10001197;-89
2022/11/06 01:19:06;;;;;;;19.00;12.30;;;;;;;;;;2055603;28;19914;-89
2022/11/06 01:20:08;;;;;;;18.05;12.85;;;;;;;;;;2052465;28;20118;-90
2022/11/06 01:21:12;;;;;;;22.05;13.85;;;;;;;;;;2060557;28;20046;-90
2022/11/06 01:22:13;;;;;;;18.10;12.10;;;;;;;;;;2055927;28;20474;-92
2022/11/06 01:23:13;;;;;;;;;;;;;;;;;;2056497;28;20027;-91
2022/11/06 01:24:16;;;;;;;19.00;12.87;;;;;;;;;;2064227;28;20363;-92
2022/11/06 01:25:17;;;;;;;25.27;13.00;;;;;;;;;;1712081;28;10243477;-91
2022/11/06 01:26:17;;;;;;;;;;;;;;;;;;2066577;28;20516;-90
2022/11/06 01:27:18;;;;;;;21.27;12.73;;;;;;;;;;2063954;28;20363;-90
2022/11/06 01:28:19;;;;;;;17.23;12.15;;;;;;;;;;2071810;28;20076;-91
2022/11/06 01:29:20;;;;;;;18.25;12.35;;;;;;;;;;2064127;28;20022;-90
2022/11/06 01:30:20;;;;;;;20.35;13.20;;;;;;;;;;2073302;28;20034;-87
2022/11/06 01:31:23;;;;;;;20.95;14.20;;;;;;;;;;2076518;28;20037;-89
2022/11/06 01:32:24;;;;;;;21.60;13.13;;;;;;;;;;2071630;28;20033;-90
2022/11/06 01:33:24;;;;;;;;;;;;;;;;;;2064857;28;20551;-90
2022/11/06 01:34:25;;;;;;;23.80;14.17;;;;;;;;;;2064243;28;20272;-90
2022/11/06 01:35:25;;;;;;;23.55;13.20;;;;;;;;;;2068052;28;20489;-90
2022/11/06 01:36:27;;;;;;;19.60;13.35;;;;;;;;;;2071627;28;20076;-89
2022/11/06 01:37:27;;;;;;;22.58;14.35;;;;;;;;;;2071832;28;20018;-90
2022/11/06 01:38:28;;;;;;;;;;;;;;;;;;2072240;28;20022;-89
2022/11/06 01:39:29;;;;;;;18.70;12.97;;;;;;;;;;2064769;28;19909;-90
2022/11/06 01:40:29;;;;;;;18.27;12.68;;;;;;;;;;2071661;28;20061;-89
2022/11/06 01:41:43;;;;;;;22.15;13.23;;;;;;;;;;2071965;28;20057;-90
2022/11/06 01:42:43;;;;;;;20.88;13.20;;;;;;;;;;2063518;28;20019;-89
2022/11/06 01:43:53;;;;;;;;;;;;;;;;;;2064163;28;20432;-90
2022/11/06 01:45:22;;;;;;;20.48;13.00;;;;;;;;;;2077485;28;19944;-89
2022/11/06 01:46:28;;;;;;;21.55;13.95;;;;;;;;;;2080208;28;20018;-88
2022/11/06 01:47:29;;;;;;;25.35;13.18;;;;;;;;;;2066603;28;20018;-90
2022/11/06 01:48:31;;;;;;;19.05;13.38;;;;;;;;;;2063515;28;20053;-90
2022/11/06 01:49:37;;;;;;;21.75;13.23;;;;;;;;;;2063707;28;20113;-89
2022/11/06 01:50:38;;;;;;;21.23;13.15;;;;;;;;;;2064132;28;20104;-90
2022/11/06 01:51:48;;;;;;;;;;;;;;;;;;2072217;28;20037;-90
2022/11/06 01:52:49;;;;;;;19.27;13.35;;;;;;;;;;2071235;28;20308;-89
2022/11/06 01:53:51;;;;;;;19.30;12.00;;;;;;;;;;2071775;28;20033;-88
2022/11/06 01:54:56;;;;;;;21.20;13.32;;;;;;;;;;2071522;28;20025;-90
2022/11/06 01:56:00;;;;;;;20.77;14.05;;;;;;;;;;2056018;28;20022;-90
2022/11/06 01:57:02;;;;;;;22.00;12.52;;;;;;;;;;2055723;28;20140;-90
2022/11/06 01:58:05;;;;;;;20.85;13.52;;;;;;;;;;2063954;28;20041;-90
2022/11/06 01:59:08;;;;;;;19.15;13.75;;;;;;;;;;2071165;28;20048;-91
2022/11/06 02:00:09;;;;;;;23.85;13.27;;;;;;;;;;2063811;28;20053;-90
2022/11/06 02:01:10;;;;;;;18.00;11.98;;;;;;;;;;2069461;28;20101;-90
2022/11/06 02:02:10;;;;;;;;;;;;;;;;;;2072063;28;20153;-90
2022/11/06 02:03:11;;;;;;;19.80;13.00;;;;;;;;;;2063490;28;20031;-91
2022/11/06 02:04:23;;;;;;;25.20;13.75;;;;;;;;;;2071683;28;20026;-90
2022/11/06 02:05:26;;;;;;;22.85;14.23;;;;;;;;;;2066794;28;20436;-90
2022/11/06 02:06:28;;;;;;;30.08;15.05;;;;;;;;;;2063516;28;20069;-89
2022/11/06 02:07:28;;;;;;;23.27;14.38;;;;;;;;;;2064222;28;20033;-90
2022/11/06 02:08:30;;;;;;;22.00;14.32;;;;;;;;;;2064197;28;20075;-90
2022/11/06 02:09:33;;;;;;;21.10;14.07;;;;;;;;;;2063335;28;20042;-90
2022/11/06 02:10:33;;;;;;;19.90;14.60;;;;;;;;;;2055614;28;20022;-90
2022/11/06 02:11:33;;;;;;;;;;;;;;;;;;2064159;28;20105;-89
2022/11/06 02:12:51;;;;;;;22.17;13.80;;;;;;;;;;2063312;28;19965;-89
2022/11/06 02:14:00;;;;;;;27.05;14.52;;;;;;;;;;2068972;28;20144;-89
2022/11/06 02:15:09;;;;;;;20.50;14.32;;;;;;;;;;2063075;28;20034;-89
2022/11/06 02:16:28;;;;;;;21.27;14.30;;;;;;;;;;2069869;28;20057;-89
2022/11/06 02:17:55;;;;;;;22.65;14.55;;;;;;;;;;2071407;28;20484;-89
2022/11/06 02:19:23;;;;;;;21.42;13.73;;;;;;;;;;2067062;28;20114;-89
2022/11/06 02:20:34;;;;;;;21.42;14.20;;;;;;;;;;2072925;28;20040;-90
2022/11/06 02:22:05;;;;;;;21.48;13.77;;;;;;;;;;2065517;28;20022;-90
2022/11/06 02:23:24;;;;;;;24.40;15.05;;;;;;;;;;2070117;28;20080;-90
2022/11/06 02:24:39;;;;;;;25.73;16.50;;;;;;;;;;2060776;28;20503;-89
2022/11/06 02:26:06;;;;;;;24.35;15.40;;;;;;;;;;2057993;28;20059;-89
2022/11/06 02:27:21;;;;;;;24.52;15.32;;;;;;;;;;2047654;28;20035;-90
2022/11/06 02:28:34;;;;;;;27.15;15.20;;;;;;;;;;2063437;28;20122;-89
2022/11/06 02:29:50;;;;;;;21.48;13.80;;;;;;;;;;2063947;28;20034;-89
2022/11/06 02:30:52;;;;;;;26.67;15.73;;;;;;;;;;1722232;28;10001462;-90
2022/11/06 02:31:58;;;;;;;25.30;16.27;;;;;;;;;;2063406;28;20419;-90
2022/11/06 02:33:01;;;;;;;24.73;15.82;;;;;;;;;;2070270;28;20052;-90
2022/11/06 02:34:07;;;;;;;20.25;15.43;;;;;;;;;;2071042;28;20116;-89
2022/11/06 02:35:16;;;;;;;22.40;15.35;;;;;;;;;;2063096;28;20069;-89
2022/11/06 02:36:24;;;;;;;23.67;16.70;;;;;;;;;;2070880;28;20116;-89
2022/11/06 02:37:28;;;;;;;25.92;16.70;;;;;;;;;;2071510;28;20100;-89
2022/11/06 02:38:37;;;;;;;26.88;14.60;;;;;;;;;;2071916;28;20026;-89
2022/11/06 02:39:40;;;;;;;22.10;14.65;;;;;;;;;;2079556;28;20017;-90
2022/11/06 02:40:57;;;;;;;25.52;16.23;;;;;;;;;;2079115;28;20416;-90
2022/11/06 02:41:59;;;;;;;28.08;15.77;;;;;;;;;;2071368;28;20449;-90
2022/11/06 02:43:04;;;;;;;27.50;15.38;;;;;;;;;;2063196;28;20235;-90
2022/11/06 02:44:09;;;;;;;21.25;15.02;;;;;;;;;;2064121;28;20038;-90
2022/11/06 02:45:13;;;;;;;26.27;14.93;;;;;;;;;;2062702;28;20025;-90
2022/11/06 02:46:36;;;;;;;25.77;15.52;;;;;;;;;;2066900;28;20029;-90
2022/11/06 02:47:40;;;;;;;26.00;16.30;;;;;;;;;;2076696;28;20428;-90
2022/11/06 02:48:47;;;;;;;26.73;16.17;;;;;;;;;;2075462;28;20492;-91
2022/11/06 02:49:53;;;;;;;24.40;15.82;;;;;;;;;;2062055;28;20072;-91
2022/11/06 02:50:56;;;;;;;25.10;15.02;;;;;;;;;;2047744;28;20509;-91
2022/11/06 02:52:04;;;;;;;24.38;15.73;;;;;;;;;;2055356;28;20089;-90
2022/11/06 02:53:07;;;;;;;24.10;15.15;;;;;;;;;;2039354;28;20600;-90
2022/11/06 02:54:09;;;;;;;23.50;16.20;;;;;;;;;;2059943;28;20046;-89
2022/11/06 02:55:44;;;;;;;29.90;15.98;;;;;;;;;;2058374;28;20038;-89
2022/11/06 02:56:48;;;;;;;27.77;15.65;;;;;;;;;;2069639;28;20053;-90
2022/11/06 02:57:53;;;;;;;32.28;16.67;;;;;;;;;;2078234;28;20033;-90
2022/11/06 02:59:35;;;;;;;26.48;16.00;;;;;;;;;;2070726;28;20447;-89
2022/11/06 03:00:36;;;;;;;;;;;;;;;;;;2055849;28;20038;-89
2022/11/06 03:01:40;;;;;;;22.98;15.35;;;;;;;;;;2063596;28;20134;-90
2022/11/06 03:02:58;;;;;;;22.98;15.63;;;;;;;;;;2063684;28;20088;-90
2022/11/06 03:04:05;;;;;;;29.08;16.02;;;;;;;;;;2063514;28;20084;-90
2022/11/06 03:05:21;;;;;;;26.27;15.35;;;;;;;;;;2062863;28;20540;-89
2022/11/06 03:06:37;;;;;;;21.13;15.95;;;;;;;;;;2056723;28;20105;-90
2022/11/06 03:07:51;;;;;;;26.13;16.58;;;;;;;;;;2055742;28;20249;-90
2022/11/06 03:09:19;;;;;;;28.92;17.45;;;;;;;;;;2055493;28;20022;-90
2022/11/06 03:10:27;;;;;;;26.73;17.70;;;;;;;;;;2055830;28;20034;-90
2022/11/06 03:11:31;;;;;;;32.05;18.60;;;;;;;;;;2055882;28;20501;-90
2022/11/06 03:12:41;;;;;;;27.58;17.83;;;;;;;;;;2057350;28;20114;-90
2022/11/06 03:13:57;;;;;;;33.30;18.50;;;;;;;;;;2070076;28;20027;-90
2022/11/06 03:15:22;;;;;;;30.42;17.65;;;;;;;;;;2071582;28;20023;-90
2022/11/06 03:16:54;;;;;;;32.75;17.85;;;;;;;;;;2073579;28;20052;-90
2022/11/06 03:18:29;;;;;;;30.13;17.67;;;;;;;;;;2072212;28;20392;-90
2022/11/06 03:19:41;;;;;;;30.48;18.05;;;;;;;;;;2062991;28;20034;-90
2022/11/06 03:20:59;;;;;;;31.27;18.85;;;;;;;;;;2056382;28;20014;-89
2022/11/06 03:22:07;;;;;;;26.58;17.13;;;;;;;;;;2062619;28;20026;-90
2022/11/06 03:23:34;;;;;;;28.13;16.88;;;;;;;;;;2058587;28;20334;-90
2022/11/06 03:25:07;;;;;;;29.90;17.80;;;;;;;;;;2070612;28;20059;-90
2022/11/06 03:26:36;;;;;;;27.13;17.52;;;;;;;;;;2030833;29;20036;-90
2022/11/06 03:27:47;;;;;;;28.35;18.08;;;;;;;;;;2051074;28;20567;-90
2022/11/06 03:28:57;;;;;;;28.73;16.70;;;;;;;;;;2063457;28;20025;-89
2022/11/06 03:30:06;;;;;;;25.88;18.00;;;;;;;;;;2071395;28;20245;-89
2022/11/06 03:31:14;;;;;;;28.98;18.80;;;;;;;;;;2067011;28;20030;-90
2022/11/06 03:32:22;;;;;;;27.48;18.35;;;;;;;;;;2055941;28;20026;-89
2022/11/06 03:33:36;;;;;;;30.40;18.05;;;;;;;;;;2063314;28;20034;-89
2022/11/06 03:34:59;;;;;;;32.10;18.33;;;;;;;;;;2063055;28;20077;-90
2022/11/06 03:36:16;;;;;;;31.33;18.42;;;;;;;;;;2052441;28;20038;-90
2022/11/06 03:37:23;;;;;;;31.23;18.40;;;;;;;;;;2064699;28;20049;-90
2022/11/06 03:38:32;;;;;;;25.35;17.00;;;;;;;;;;2070198;28;20061;-90
2022/11/06 03:39:38;;;;;;;29.42;17.73;;;;;;;;;;2063038;28;20097;-90
2022/11/06 03:40:45;;;;;;;31.70;18.75;;;;;;;;;;2063382;28;20420;-90
2022/11/06 03:42:00;;;;;;;30.27;18.10;;;;;;;;;;2063344;28;20105;-91
2022/11/06 03:43:04;;;;;;;25.13;16.75;;;;;;;;;;1720316;28;10000022;-89
2022/11/06 03:44:08;;;;;;;30.63;17.85;;;;;;;;;;2063373;28;20022;-90
2022/11/06 03:45:12;;;;;;;29.40;17.33;;;;;;;;;;2066525;28;20030;-90
2022/11/06 03:46:18;;;;;;;25.77;17.17;;;;;;;;;;2064234;28;20042;-89
2022/11/06 03:47:25;;;;;;;27.75;17.10;;;;;;;;;;2063702;28;20410;-89
2022/11/06 03:48:33;;;;;;;27.33;17.63;;;;;;;;;;2063743;28;20019;-89
2022/11/06 03:49:42;;;;;;;29.90;17.67;;;;;;;;;;2071761;28;20049;-89
2022/11/06 03:51:00;;;;;;;26.88;17.77;;;;;;;;;;2055091;28;20013;-91
2022/11/06 03:52:07;;;;;;;28.15;17.45;;;;;;;;;;2062859;28;20142;-91
2022/11/06 03:53:13;;;;;;;27.83;18.15;;;;;;;;;;2055996;28;20118;-90
2022/11/06 03:54:21;;;;;;;27.45;18.67;;;;;;;;;;2063807;28;20148;-90
2022/11/06 03:55:28;;;;;;;26.35;18.55;;;;;;;;;;2063063;28;20481;-90
2022/11/06 03:56:39;;;;;;;30.90;18.50;;;;;;;;;;2063772;28;20091;-90
2022/11/06 03:58:11;;;;;;;31.15;19.73;;;;;;;;;;2070023;28;20037;-89
2022/11/06 03:59:17;;;;;;;31.60;19.38;;;;;;;;;;2070293;28;20045;-88
2022/11/06 04:00:19;;;;;;;35.95;19.95;;;;;;;;;;2073246;28;20105;-89
2022/11/06 04:01:27;;;;;;;28.25;18.92;;;;;;;;;;2063649;28;20026;-89
2022/11/06 04:02:30;;;;;;;29.67;19.10;;;;;;;;;;2063430;28;20524;-89
2022/11/06 04:03:36;;;;;;;29.25;19.55;;;;;;;;;;2063529;28;20118;-89
2022/11/06 04:04:49;;;;;;;30.98;19.00;;;;;;;;;;2070874;28;20049;-89
2022/11/06 04:05:59;;;;;;;28.65;19.45;;;;;;;;;;2063142;28;20462;-90
2022/11/06 04:07:08;;;;;;;29.50;18.52;;;;;;;;;;2066396;28;20026;-90
2022/11/06 04:14:00;;;;;;;30.45;18.08;;;;;;;;;;2063337;28;20026;-90
2022/11/06 04:15:01;;;;;;;23.75;16.83;;;;;;;;;;2062673;28;20098;-90
2022/11/06 04:16:02;;;;;;;29.55;18.77;;;;;;;;;;2062766;28;20109;-91
2022/11/06 04:17:05;;;;;;;;;;;;;;;;;;2073457;28;20033;-90
2022/11/06 04:18:18;;;;;;;31.17;19.35;;;;;;;;;;2072526;28;19910;-90
2022/11/06 04:19:21;;;;;;;27.38;18.90;;;;;;;;;;2056917;28;20468;-90
2022/11/06 04:22:09;;;;;;;28.13;19.50;;;;;;;;;;2056821;28;20027;-88
2022/11/06 04:23:09;;;;;;;30.85;19.65;;;;;;;;;;2061355;28;20034;-88
2022/11/06 04:27:23;;;;;;;30.85;20.15;;;;;;;;;;2059356;28;20532;-89
2022/11/06 04:29:05;;;;;;;32.75;20.70;;;;;;;;;;2064866;28;20034;-89
2022/11/06 04:30:19;;;;;;;28.63;20.08;;;;;;;;;;2071559;28;20033;-90
2022/11/06 04:31:21;;;;;;;30.70;20.50;;;;;;;;;;2072271;28;20030;-90
2022/11/06 04:32:43;;;;;;;26.33;20.40;;;;;;;;;;2063749;28;20026;-90
2022/11/06 04:33:58;;;;;;;36.10;21.77;;;;;;;;;;2066772;28;20025;-90
2022/11/06 04:35:14;;;;;;;27.58;19.35;;;;;;;;;;2062013;28;20037;-90
2022/11/06 04:36:32;;;;;;;29.67;20.17;;;;;;;;;;2058172;28;20038;-90
2022/11/06 04:37:38;;;;;;;33.53;20.33;;;;;;;;;;2064704;28;20057;-89
2022/11/06 04:38:56;;;;;;;37.33;21.27;;;;;;;;;;2064526;28;20108;-89
2022/11/06 04:40:08;;;;;;;30.58;20.15;;;;;;;;;;2072197;28;20029;-89
2022/11/06 04:41:33;;;;;;;29.70;20.60;;;;;;;;;;1726456;28;10002033;-88
2022/11/06 04:42:53;;;;;;;33.30;19.55;;;;;;;;;;2067221;28;20034;-88
2022/11/06 04:43:58;;;;;;;31.88;19.88;;;;;;;;;;2068409;28;20124;-89
2022/11/06 04:45:05;;;;;;;34.00;21.38;;;;;;;;;;2075509;28;20013;-90
2022/11/06 04:46:10;;;;;;;32.22;19.52;;;;;;;;;;2073638;28;20117;-90
2022/11/06 04:47:20;;;;;;;31.90;20.55;;;;;;;;;;2064358;28;20077;-88
2022/11/06 04:48:22;;;;;;;34.17;20.58;;;;;;;;;;2070752;28;20049;-89
2022/11/06 04:49:23;;;;;;;38.15;22.33;;;;;;;;;;2072223;28;20077;-88
2022/11/06 04:50:26;;;;;;;32.53;19.93;;;;;;;;;;1721693;28;10137610;-88
2022/11/06 04:51:30;;;;;;;36.45;23.00;;;;;;;;;;2072108;28;20366;-88
2022/11/06 04:52:31;;;;;;;30.83;20.80;;;;;;;;;;2072114;28;20052;-88
2022/11/06 04:53:33;;;;;;;33.28;20.95;;;;;;;;;;2072168;28;20037;-89
2022/11/06 04:54:34;;;;;;;37.15;20.35;;;;;;;;;;2063648;28;20136;-89
2022/11/06 04:55:37;;;;;;;;;;;;;;;;;;2063703;28;20038;-88
2022/11/06 04:56:38;;;;;;;29.83;19.73;;;;;;;;;;2071823;28;20020;-88
2022/11/06 04:57:38;;;;;;;;;;;;;;;;;;2072270;28;20021;-88
2022/11/06 04:58:38;;;;;;;34.90;20.70;;;;;;;;;;2072068;28;19913;-89
2022/11/06 04:59:39;;;;;;;31.55;22.25;;;;;;;;;;2072001;28;20026;-88
2022/11/06 05:00:43;;;;;;;40.10;20.83;;;;;;;;;;2061671;28;20027;-88
2022/11/06 05:01:45;;;;;;;33.08;21.73;;;;;;;;;;2056589;28;20482;-89
2022/11/06 05:02:45;;;;;;;35.78;20.67;;;;;;;;;;2063731;28;20094;-89
2022/11/06 05:03:46;;;;;;;;;;;;;;;;;;2072405;28;20440;-89
2022/11/06 05:04:46;;;;;;;33.23;20.70;;;;;;;;;;2063854;28;19910;-90
2022/11/06 05:05:47;;;;;;;33.75;20.65;;;;;;;;;;2071600;28;20513;-90
2022/11/06 05:06:47;;;;;;;36.60;21.42;;;;;;;;;;2063821;28;20033;-89
2022/11/06 05:07:47;;;;;;;32.60;20.55;;;;;;;;;;2055489;28;20050;-89
2022/11/06 05:08:48;;;;;;;;;;;;;;;;;;2064261;28;20033;-89
2022/11/06 05:09:48;;;;;;;34.50;19.73;;;;;;;;;;2064507;28;19910;-89
2022/11/06 05:10:48;;;;;;;36.28;20.02;;;;;;;;;;2063686;28;20018;-88
2022/11/06 05:11:49;;;;;;;31.98;20.23;;;;;;;;;;2069308;28;20492;-89
2022/11/06 05:12:49;;;;;;;;;;;;;;;;;;2072322;28;20046;-88
2022/11/06 05:13:50;;;;;;;34.78;19.75;;;;;;;;;;2065993;28;20472;-88
2022/11/06 05:14:50;;;;;;;;;;;;;;;;;;2064095;28;20023;-89
2022/11/06 05:15:57;;;;;;;31.40;19.23;;;;;;;;;;2063197;28;19910;-89
2022/11/06 05:16:58;;;;;;;34.65;19.92;;;;;;;;;;2063452;28;20026;-89
2022/11/06 05:17:58;;;;;;;;;;;;;;;;;;2067961;28;20030;-88
2022/11/06 05:18:59;;;;;;;27.60;18.20;;;;;;;;;;2079844;28;20403;-88
2022/11/06 05:19:59;;;;;;;32.03;19.83;;;;;;;;;;2072566;28;20339;-90
2022/11/06 05:23:39;;;;;;;30.08;19.85;;;;;;;;;;2068559;28;20058;-88
2022/11/06 05:24:40;;;;;;;34.70;19.65;;;;;;;;;;2063090;28;20143;-88
2022/11/06 05:25:41;;;;;;;;;;;;;;;;;;2055660;28;20063;-88
2022/11/06 05:26:41;;;;;;;32.87;19.70;;;;;;;;;;2063642;28;19913;-88
2022/11/06 05:27:41;;;;;;;31.38;19.77;;;;;;;;;;2063458;28;20149;-88
2022/11/06 05:28:42;;;;;;;29.80;19.15;;;;;;;;;;2063602;28;20019;-88
2022/11/06 05:29:43;;;;;;;33.90;21.05;;;;;;;;;;2072344;28;20370;-88
2022/11/06 05:30:44;;;;;;;32.53;20.30;;;;;;;;;;2079628;28;20034;-88
2022/11/06 05:31:44;;;;;;;31.58;20.90;;;;;;;;;;2073993;28;20049;-88
2022/11/06 05:32:45;;;;;;;;;;;;;;;;;;2073413;28;20018;-88
2022/11/06 05:33:45;;;;;;;33.30;19.27;;;;;;;;;;2069959;28;19920;-88
2022/11/06 05:34:46;;;;;;;32.55;20.67;;;;;;;;;;2067948;28;20046;-88
2022/11/06 05:35:46;;;;;;;30.17;19.45;;;;;;;;;;2067287;28;20101;-89
2022/11/06 05:36:46;;;;;;;33.00;20.60;;;;;;;;;;2065051;28;20030;-89
2022/11/06 05:37:47;;;;;;;29.60;19.08;;;;;;;;;;2064343;28;20367;-89
2022/11/06 05:38:47;;;;;;;33.38;20.20;;;;;;;;;;2065313;28;20100;-88
2022/11/06 05:39:48;;;;;;;29.25;19.73;;;;;;;;;;2068585;28;20085;-88
2022/11/06 05:40:48;;;;;;;;;;;;;;;;;;2082540;28;20440;-88
2022/11/06 05:41:48;;;;;;;35.27;20.20;;;;;;;;;;2086821;28;19935;-88
2022/11/06 05:42:49;;;;;;;29.50;20.20;;;;;;;;;;2087045;28;20078;-88
2022/11/06 05:43:49;;;;;;;32.88;18.83;;;;;;;;;;2079147;28;20041;-88
2022/11/06 05:44:49;;;;;;;;;;;;;;;;;;2076677;28;20056;-88
2022/11/06 05:45:50;;;;;;;31.70;18.77;;;;;;;;;;2068264;28;19913;-87
2022/11/06 05:46:50;;;;;;;30.65;20.52;;;;;;;;;;2071849;28;20579;-88
2022/11/06 05:47:51;;;;;;;27.20;19.08;;;;;;;;;;2064542;28;20068;-88
2022/11/06 05:48:51;;;;;;;26.08;18.05;;;;;;;;;;2079716;28;20033;-88
2022/11/06 05:49:51;;;;;;;;;;;;;;;;;;2081298;28;20029;-88
2022/11/06 05:50:52;;;;;;;31.03;19.10;;;;;;;;;;2081677;28;19944;-88
2022/11/06 05:51:52;;;;;;;;;;;;;;;;;;2089400;28;20028;-88
2022/11/06 05:52:53;;;;;;;30.47;19.00;;;;;;;;;;2078567;28;20494;-88
2022/11/06 05:53:54;;;;;;;31.02;19.73;;;;;;;;;;2079723;28;20022;-88
2022/11/06 05:54:55;;;;;;;30.85;19.42;;;;;;;;;;2079239;28;20079;-89
2022/11/06 05:55:55;;;;;;;33.47;20.67;;;;;;;;;;2076916;28;20413;-88
2022/11/06 05:56:56;;;;;;;29.60;19.52;;;;;;;;;;2073830;28;20033;-88
2022/11/06 05:58:00;;;;;;;34.35;22.52;;;;;;;;;;2079155;28;20021;-87
2022/11/06 05:59:01;;;;;;;32.45;20.65;;;;;;;;;;2063206;28;20058;-88
2022/11/06 06:00:02;;;;;;;33.65;21.30;;;;;;;;;;2056891;28;20042;-88
2022/11/06 06:01:08;;;;;;;31.83;21.08;;;;;;;;;;2071107;28;20056;-89
2022/11/06 06:02:09;;;;;;;33.25;21.98;;;;;;;;;;2069100;28;20032;-88
2022/11/06 06:03:11;;;;;;;35.05;21.65;;;;;;;;;;2071332;28;20029;-88
2022/11/06 06:04:11;;;;;;;34.75;22.17;;;;;;;;;;2071220;28;20218;-90
2022/11/06 06:05:11;;;;;;;34.33;21.65;;;;;;;;;;2054918;28;20023;-89
2022/11/06 06:06:12;;;;;;;34.35;21.20;;;;;;;;;;2055575;28;20058;-89
2022/11/06 06:07:13;;;;;;;35.35;20.98;;;;;;;;;;2071752;28;20579;-89
2022/11/06 06:08:13;;;;;;;28.67;20.67;;;;;;;;;;2062867;28;20038;-89
2022/11/06 06:09:13;;;;;;;;;;;;;;;;;;2064139;28;20026;-88
2022/11/06 06:10:14;;;;;;;32.97;21.30;;;;;;;;;;2071156;28;19921;-88
2022/11/06 06:11:14;;;;;;;32.83;21.38;;;;;;;;;;2071255;28;20105;-88
2022/11/06 06:12:15;;;;;;;32.53;20.48;;;;;;;;;;2062998;28;20340;-88
2022/11/06 06:13:16;;;;;;;29.55;20.27;;;;;;;;;;2054985;28;20027;-88
2022/11/06 06:14:18;;;;;;;40.47;22.35;;;;;;;;;;2063345;28;20032;-88
2022/11/06 06:15:19;;;;;;;32.47;20.08;;;;;;;;;;2071486;28;20026;-88
2022/11/06 06:16:24;;;;;;;33.28;21.02;;;;;;;;;;1880975;28;10002000;-88
2022/11/06 06:17:26;;;;;;;;;;;;;;;;;;2071813;28;20266;-87
2022/11/06 06:18:26;;;;;;;34.40;22.25;;;;;;;;;;2071022;28;20255;-87
2022/11/06 06:19:26;;;;;;;33.67;21.27;;;;;;;;;;2071073;28;20060;-87
2022/11/06 06:20:27;;;;;;;34.05;20.75;;;;;;;;;;2063339;28;20037;-87
2022/11/06 06:21:27;;;;;;;;;;;;;;;;;;2063917;28;20461;-87
2022/11/06 06:22:28;;;;;;;32.90;21.33;;;;;;;;;;2071167;28;19913;-88
2022/11/06 06:23:28;;;;;;;34.65;21.15;;;;;;;;;;2071062;28;20037;-87
2022/11/06 06:24:28;;;;;;;32.78;21.33;;;;;;;;;;2063783;28;20449;-87
2022/11/06 06:25:29;;;;;;;34.95;20.75;;;;;;;;;;2062374;28;20057;-87
2022/11/06 06:26:30;;;;;;;32.10;20.50;;;;;;;;;;2062635;28;20052;-88
2022/11/06 06:27:33;;;;;;;40.20;23.75;;;;;;;;;;2071037;28;20034;-87
2022/11/06 06:28:34;;;;;;;34.17;20.92;;;;;;;;;;2062707;28;20030;-89
2022/11/06 06:29:34;;;;;;;34.03;21.35;;;;;;;;;;2055109;28;20023;-88
2022/11/06 06:30:35;;;;;;;35.25;20.58;;;;;;;;;;2056970;28;20026;-88
2022/11/06 06:31:35;;;;;;;29.55;20.55;;;;;;;;;;2062929;28;20080;-89
2022/11/06 06:32:35;;;;;;;32.58;21.05;;;;;;;;;;2063281;28;20517;-88
2022/11/06 06:33:37;;;;;;;34.22;22.30;;;;;;;;;;2062829;28;20058;-87
2022/11/06 06:34:38;;;;;;;30.15;21.33;;;;;;;;;;2063020;28;20049;-88
2022/11/06 06:35:38;;;;;;;33.55;21.58;;;;;;;;;;2062870;28;20134;-89
2022/11/06 06:36:38;;;;;;;34.55;19.55;;;;;;;;;;2063307;28;20118;-88
2022/11/06 06:37:39;;;;;;;37.47;21.55;;;;;;;;;;2063225;28;20046;-89
2022/11/06 06:38:39;;;;;;;28.48;19.65;;;;;;;;;;2063445;28;20054;-89